Petersburg, AK

4:07 AM AKST on February 08, 2016 (GMT -0900)
Johnson Petersburg | | Change Station
CLOSE
Current Station
Airport
Location: Petersburg,
Elevation: 0 ft
Nearby Weather Stations

Elev 0 ft 56.82 °N, 132.97 °W | Updated 11 minutes ago

Overcast
Overcast
37 °F
Feels Like 37 °F
N
0
Wind Variable Wind from North

Today
High -- | Low -- °F
--% Chance of Precip.
Yesterday
High -- | Low -- °F
Precip. -- in
Pressure 30.07 in
Visibility 9.0 miles
Clouds Mostly Cloudy 3000 ft
Overcast 3500 ft
Dew Point 34 °F
Humidity 87%
Rainfall 0.10 in
Snow Depth Not available.
7:37 AM 4:38 PM
Waning Crescent, 0% visible
METAR PAPG 081256Z 00000KT 9SM BKN030 OVC035 03/01 A3007 RMK AO1 P0005
Pressure 30.07 in
Visibility 9.0 miles
Clouds Mostly Cloudy 3000 ft
Overcast 3500 ft
Dew Point 34 °F
Humidity 87%
Rainfall 0.10 in
Snow Depth Not available.
7:37 AM 4:38 PM
Waning Crescent, 0% visible
METAR PAPG 081256Z 00000KT 9SM BKN030 OVC035 03/01 A3007 RMK AO1 P0005

10-Day Weather Forecast

Almanac

Astronomy

Feb. 08, 2016 Rise Set
Actual Time
Civil Twilight
Nautical Twilight
Astronomical Twilight
Moon
Length of Visible Light
Length of Day
Tomorrow will be .
, % of the Moon is Illuminated

Today's Extremes

State Highs State Lows

Community

WunderPhotos

Upload Photos

1,891,434 photos uploaded!

WunderBlog® & News

Nearby

Air Quality

  Air Quality AQ Index Pollutant
Not available.

Snow Depth

Station Depth Elevation

Earthquake Activity

City Distance Mag. Time & Date
Minimum magnitude displayed is 2.5.

Coastal Water Temperatures

Place Temperature

Stations

Nearby Weather Stations

Station Location Temp. Windchill Dew Point Humidity Wind Precip. Elev Updated Type
                   

Watches & Warnings

There are currently no watches in effect.